sensor_id;sensor_type;location;lat;lon;timestamp;temperature;humidity
31809;DHT22;18379;48.208;-1.518;2024-01-30T00:03:45;12.20;99.90
31809;DHT22;18379;48.208;-1.518;2024-01-30T00:08:45;12.20;99.90
31809;DHT22;18379;48.208;-1.518;2024-01-30T00:13:49;12.10;99.90
31809;DHT22;18379;48.208;-1.518;2024-01-30T00:18:53;12.10;99.90
31809;DHT22;18379;48.208;-1.518;2024-01-30T00:23:55;12.20;99.90
31809;DHT22;18379;48.208;-1.518;2024-01-30T00:28:56;12.20;99.90
31809;DHT22;18379;48.208;-1.518;2024-01-30T00:33:56;12.20;99.90
31809;DHT22;18379;48.208;-1.518;2024-01-30T00:38:57;12.30;99.90
31809;DHT22;18379;48.208;-1.518;2024-01-30T00:43:58;12.30;99.90
31809;DHT22;18379;48.208;-1.518;2024-01-30T00:48:58;12.20;99.90
31809;DHT22;18379;48.208;-1.518;2024-01-30T00:53:59;12.40;99.90
31809;DHT22;18379;48.208;-1.518;2024-01-30T00:58:59;12.30;99.90
31809;DHT22;18379;48.208;-1.518;2024-01-30T01:04:00;12.30;99.90
31809;DHT22;18379;48.208;-1.518;2024-01-30T01:09:01;12.20;99.90
31809;DHT22;18379;48.208;-1.518;2024-01-30T01:14:01;12.20;99.90
31809;DHT22;18379;48.208;-1.518;2024-01-30T01:19:02;12.20;99.90
31809;DHT22;18379;48.208;-1.518;2024-01-30T01:24:03;12.20;99.90
31809;DHT22;18379;48.208;-1.518;2024-01-30T01:29:05;12.20;99.90
31809;DHT22;18379;48.208;-1.518;2024-01-30T01:34:10;12.10;99.90
31809;DHT22;18379;48.208;-1.518;2024-01-30T01:39:11;12.20;99.90
31809;DHT22;18379;48.208;-1.518;2024-01-30T01:44:12;12.20;99.90
31809;DHT22;18379;48.208;-1.518;2024-01-30T01:49:13;12.20;99.90
31809;DHT22;18379;48.208;-1.518;2024-01-30T01:54:15;12.30;99.90
31809;DHT22;18379;48.208;-1.518;2024-01-30T01:59:17;12.30;99.90
31809;DHT22;18379;48.208;-1.518;2024-01-30T02:04:18;12.30;99.90
31809;DHT22;18379;48.208;-1.518;2024-01-30T02:09:19;12.30;99.90
31809;DHT22;18379;48.208;-1.518;2024-01-30T02:14:19;12.40;99.90
31809;DHT22;18379;48.208;-1.518;2024-01-30T02:19:20;12.40;99.90
31809;DHT22;18379;48.208;-1.518;2024-01-30T02:24:20;12.40;99.90
31809;DHT22;18379;48.208;-1.518;2024-01-30T02:29:21;12.30;99.90
31809;DHT22;18379;48.208;-1.518;2024-01-30T02:34:22;12.30;99.90
31809;DHT22;18379;48.208;-1.518;2024-01-30T02:39:22;12.20;99.90
31809;DHT22;18379;48.208;-1.518;2024-01-30T02:44:23;12.10;99.90
31809;DHT22;18379;48.208;-1.518;2024-01-30T02:49:24;12.10;99.90
31809;DHT22;18379;48.208;-1.518;2024-01-30T02:54:24;12.10;99.90
31809;DHT22;18379;48.208;-1.518;2024-01-30T02:59:25;12.10;99.90
31809;DHT22;18379;48.208;-1.518;2024-01-30T03:04:25;12.00;99.90
31809;DHT22;18379;48.208;-1.518;2024-01-30T03:09:26;12.00;99.90
31809;DHT22;18379;48.208;-1.518;2024-01-30T03:14:27;12.00;99.90
31809;DHT22;18379;48.208;-1.518;2024-01-30T03:19:27;12.00;99.90
31809;DHT22;18379;48.208;-1.518;2024-01-30T03:24:28;12.00;99.90
31809;DHT22;18379;48.208;-1.518;2024-01-30T03:29:29;11.80;99.90
31809;DHT22;18379;48.208;-1.518;2024-01-30T03:34:30;11.70;99.90
31809;DHT22;18379;48.208;-1.518;2024-01-30T03:39:30;11.60;99.90
31809;DHT22;18379;48.208;-1.518;2024-01-30T03:44:31;11.50;99.90
31809;DHT22;18379;48.208;-1.518;2024-01-30T03:49:32;11.50;99.90
31809;DHT22;18379;48.208;-1.518;2024-01-30T03:54:32;11.40;99.90
31809;DHT22;18379;48.208;-1.518;2024-01-30T03:59:33;11.40;99.90
31809;DHT22;18379;48.208;-1.518;2024-01-30T04:04:33;11.30;99.90
31809;DHT22;18379;48.208;-1.518;2024-01-30T04:09:34;11.20;99.90
31809;DHT22;18379;48.208;-1.518;2024-01-30T04:14:35;11.10;99.90
31809;DHT22;18379;48.208;-1.518;2024-01-30T04:19:38;11.10;99.90
31809;DHT22;18379;48.208;-1.518;2024-01-30T04:24:39;11.10;99.90
31809;DHT22;18379;48.208;-1.518;2024-01-30T04:29:40;11.20;99.90
31809;DHT22;18379;48.208;-1.518;2024-01-30T04:34:40;11.20;99.90
31809;DHT22;18379;48.208;-1.518;2024-01-30T04:39:41;11.20;99.90
31809;DHT22;18379;48.208;-1.518;2024-01-30T04:44:42;11.20;99.90
31809;DHT22;18379;48.208;-1.518;2024-01-30T04:49:42;11.20;99.90
31809;DHT22;18379;48.208;-1.518;2024-01-30T04:54:43;11.20;99.90
31809;DHT22;18379;48.208;-1.518;2024-01-30T04:59:43;11.20;99.90
31809;DHT22;18379;48.208;-1.518;2024-01-30T05:04:44;11.20;99.90
31809;DHT22;18379;48.208;-1.518;2024-01-30T05:09:45;11.00;99.90
31809;DHT22;18379;48.208;-1.518;2024-01-30T05:14:45;10.90;99.90
31809;DHT22;18379;48.208;-1.518;2024-01-30T05:19:46;10.90;99.90
31809;DHT22;18379;48.208;-1.518;2024-01-30T05:24:47;10.90;99.90
31809;DHT22;18379;48.208;-1.518;2024-01-30T05:29:47;10.90;99.90
31809;DHT22;18379;48.208;-1.518;2024-01-30T05:34:48;10.90;99.90
31809;DHT22;18379;48.208;-1.518;2024-01-30T05:39:50;10.80;99.90
31809;DHT22;18379;48.208;-1.518;2024-01-30T05:44:51;10.70;99.90
31809;DHT22;18379;48.208;-1.518;2024-01-30T05:49:52;10.60;99.90
31809;DHT22;18379;48.208;-1.518;2024-01-30T05:54:52;10.70;99.90
31809;DHT22;18379;48.208;-1.518;2024-01-30T05:59:53;10.70;99.90
31809;DHT22;18379;48.208;-1.518;2024-01-30T06:04:53;10.70;99.90
31809;DHT22;18379;48.208;-1.518;2024-01-30T06:09:54;10.50;99.90
31809;DHT22;18379;48.208;-1.518;2024-01-30T06:14:55;10.50;99.90
31809;DHT22;18379;48.208;-1.518;2024-01-30T06:19:57;10.50;99.90
31809;DHT22;18379;48.208;-1.518;2024-01-30T06:24:58;10.40;99.90
31809;DHT22;18379;48.208;-1.518;2024-01-30T06:29:58;10.30;99.90
31809;DHT22;18379;48.208;-1.518;2024-01-30T06:35:02;10.20;99.90
31809;DHT22;18379;48.208;-1.518;2024-01-30T06:40:03;10.10;99.90
31809;DHT22;18379;48.208;-1.518;2024-01-30T06:45:06;10.10;99.90
31809;DHT22;18379;48.208;-1.518;2024-01-30T06:50:08;10.00;99.90
31809;DHT22;18379;48.208;-1.518;2024-01-30T06:55:10;10.00;99.90
31809;DHT22;18379;48.208;-1.518;2024-01-30T07:00:11;9.90;99.90
31809;DHT22;18379;48.208;-1.518;2024-01-30T07:05:12;9.90;99.90
31809;DHT22;18379;48.208;-1.518;2024-01-30T07:10:13;9.80;99.90
31809;DHT22;18379;48.208;-1.518;2024-01-30T07:15:14;9.80;99.90
31809;DHT22;18379;48.208;-1.518;2024-01-30T07:20:17;9.60;99.90
31809;DHT22;18379;48.208;-1.518;2024-01-30T07:25:20;9.50;99.90
31809;DHT22;18379;48.208;-1.518;2024-01-30T07:30:22;9.50;99.90
31809;DHT22;18379;48.208;-1.518;2024-01-30T07:35:24;9.50;99.90
31809;DHT22;18379;48.208;-1.518;2024-01-30T07:40:24;9.50;99.90
31809;DHT22;18379;48.208;-1.518;2024-01-30T07:45:25;9.40;99.90
31809;DHT22;18379;48.208;-1.518;2024-01-30T07:50:28;9.50;99.90
31809;DHT22;18379;48.208;-1.518;2024-01-30T07:55:28;9.40;99.90
31809;DHT22;18379;48.208;-1.518;2024-01-30T08:00:29;9.40;99.90
31809;DHT22;18379;48.208;-1.518;2024-01-30T08:05:30;9.50;99.90
31809;DHT22;18379;48.208;-1.518;2024-01-30T08:10:31;9.40;99.90
31809;DHT22;18379;48.208;-1.518;2024-01-30T08:15:31;9.50;99.90
31809;DHT22;18379;48.208;-1.518;2024-01-30T08:20:32;9.40;99.90
31809;DHT22;18379;48.208;-1.518;2024-01-30T08:25:33;9.50;99.90
31809;DHT22;18379;48.208;-1.518;2024-01-30T08:30:34;9.60;99.90
31809;DHT22;18379;48.208;-1.518;2024-01-30T08:35:34;9.60;99.90
31809;DHT22;18379;48.208;-1.518;2024-01-30T08:40:35;9.70;99.90
31809;DHT22;18379;48.208;-1.518;2024-01-30T08:45:36;9.70;99.90
31809;DHT22;18379;48.208;-1.518;2024-01-30T08:50:36;9.60;99.90
31809;DHT22;18379;48.208;-1.518;2024-01-30T08:55:37;9.70;99.90
31809;DHT22;18379;48.208;-1.518;2024-01-30T09:00:37;9.90;99.90
31809;DHT22;18379;48.208;-1.518;2024-01-30T09:05:38;9.90;99.90
31809;DHT22;18379;48.208;-1.518;2024-01-30T09:10:39;10.00;99.90
31809;DHT22;18379;48.208;-1.518;2024-01-30T09:15:40;10.00;99.90
31809;DHT22;18379;48.208;-1.518;2024-01-30T09:20:40;10.00;99.90
31809;DHT22;18379;48.208;-1.518;2024-01-30T09:25:41;10.20;99.90
31809;DHT22;18379;48.208;-1.518;2024-01-30T09:30:42;10.30;99.90
31809;DHT22;18379;48.208;-1.518;2024-01-30T09:35:42;10.30;99.90
31809;DHT22;18379;48.208;-1.518;2024-01-30T09:40:44;10.20;99.90
31809;DHT22;18379;48.208;-1.518;2024-01-30T09:45:48;10.30;99.90
31809;DHT22;18379;48.208;-1.518;2024-01-30T09:50:51;10.60;99.90
31809;DHT22;18379;48.208;-1.518;2024-01-30T09:55:52;10.80;99.90
31809;DHT22;18379;48.208;-1.518;2024-01-30T10:00:53;11.10;99.90
31809;DHT22;18379;48.208;-1.518;2024-01-30T10:05:55;11.30;99.90
31809;DHT22;18379;48.208;-1.518;2024-01-30T10:10:56;11.50;99.90
31809;DHT22;18379;48.208;-1.518;2024-01-30T10:15:57;11.60;99.90
31809;DHT22;18379;48.208;-1.518;2024-01-30T10:20:59;11.70;99.90
31809;DHT22;18379;48.208;-1.518;2024-01-30T10:25:59;11.90;99.90
31809;DHT22;18379;48.208;-1.518;2024-01-30T10:31:00;11.70;99.90
31809;DHT22;18379;48.208;-1.518;2024-01-30T10:36:03;11.90;99.90
31809;DHT22;18379;48.208;-1.518;2024-01-30T10:41:05;11.70;99.90
31809;DHT22;18379;48.208;-1.518;2024-01-30T10:46:15;11.60;99.90
31809;DHT22;18379;48.208;-1.518;2024-01-30T10:51:18;11.90;99.90
31809;DHT22;18379;48.208;-1.518;2024-01-30T10:56:24;12.10;99.90
31809;DHT22;18379;48.208;-1.518;2024-01-30T11:01:25;12.10;99.90
31809;DHT22;18379;48.208;-1.518;2024-01-30T11:06:28;12.50;99.90
31809;DHT22;18379;48.208;-1.518;2024-01-30T11:11:28;12.80;99.90
31809;DHT22;18379;48.208;-1.518;2024-01-30T11:16:32;12.90;99.90
31809;DHT22;18379;48.208;-1.518;2024-01-30T11:21:32;12.30;99.90
31809;DHT22;18379;48.208;-1.518;2024-01-30T11:26:33;11.90;99.90
31809;DHT22;18379;48.208;-1.518;2024-01-30T11:31:34;12.20;99.90
31809;DHT22;18379;48.208;-1.518;2024-01-30T11:36:35;11.90;99.90
31809;DHT22;18379;48.208;-1.518;2024-01-30T11:41:38;11.70;99.90
31809;DHT22;18379;48.208;-1.518;2024-01-30T11:46:40;11.70;99.90
31809;DHT22;18379;48.208;-1.518;2024-01-30T11:51:40;11.90;99.90
31809;DHT22;18379;48.208;-1.518;2024-01-30T11:56:42;12.00;99.90
31809;DHT22;18379;48.208;-1.518;2024-01-30T12:01:43;11.80;99.90
31809;DHT22;18379;48.208;-1.518;2024-01-30T12:06:44;11.70;99.90
31809;DHT22;18379;48.208;-1.518;2024-01-30T12:11:48;12.20;99.90
31809;DHT22;18379;48.208;-1.518;2024-01-30T12:16:50;12.80;99.90
31809;DHT22;18379;48.208;-1.518;2024-01-30T12:21:57;13.00;99.90
31809;DHT22;18379;48.208;-1.518;2024-01-30T12:26:59;12.50;99.90
31809;DHT22;18379;48.208;-1.518;2024-01-30T12:32:00;12.50;99.90
31809;DHT22;18379;48.208;-1.518;2024-01-30T12:37:01;12.40;99.90
31809;DHT22;18379;48.208;-1.518;2024-01-30T12:42:02;12.40;99.90
31809;DHT22;18379;48.208;-1.518;2024-01-30T12:47:04;13.00;99.90
31809;DHT22;18379;48.208;-1.518;2024-01-30T12:52:04;13.70;99.90
31809;DHT22;18379;48.208;-1.518;2024-01-30T12:57:05;14.10;99.90
31809;DHT22;18379;48.208;-1.518;2024-01-30T13:02:07;13.50;99.90
31809;DHT22;18379;48.208;-1.518;2024-01-30T13:07:07;12.40;99.90
31809;DHT22;18379;48.208;-1.518;2024-01-30T13:12:08;12.50;99.90
31809;DHT22;18379;48.208;-1.518;2024-01-30T13:17:09;12.10;99.90
31809;DHT22;18379;48.208;-1.518;2024-01-30T13:22:09;12.60;99.90
31809;DHT22;18379;48.208;-1.518;2024-01-30T13:27:10;13.50;99.90
31809;DHT22;18379;48.208;-1.518;2024-01-30T13:32:11;13.90;99.90
31809;DHT22;18379;48.208;-1.518;2024-01-30T13:37:11;13.20;99.90
31809;DHT22;18379;48.208;-1.518;2024-01-30T13:42:12;12.10;99.90
31809;DHT22;18379;48.208;-1.518;2024-01-30T13:47:13;11.80;99.90
31809;DHT22;18379;48.208;-1.518;2024-01-30T13:52:14;11.60;99.90
31809;DHT22;18379;48.208;-1.518;2024-01-30T13:57:14;11.70;99.90
31809;DHT22;18379;48.208;-1.518;2024-01-30T14:02:15;11.80;99.90
31809;DHT22;18379;48.208;-1.518;2024-01-30T14:07:16;12.00;99.90
31809;DHT22;18379;48.208;-1.518;2024-01-30T14:12:18;12.50;99.90
31809;DHT22;18379;48.208;-1.518;2024-01-30T14:17:19;12.30;99.90
31809;DHT22;18379;48.208;-1.518;2024-01-30T14:22:20;12.00;99.90
31809;DHT22;18379;48.208;-1.518;2024-01-30T14:27:21;11.90;99.90
31809;DHT22;18379;48.208;-1.518;2024-01-30T14:32:22;11.70;99.90
31809;DHT22;18379;48.208;-1.518;2024-01-30T14:37:23;11.40;99.90
31809;DHT22;18379;48.208;-1.518;2024-01-30T14:42:24;11.50;99.90
31809;DHT22;18379;48.208;-1.518;2024-01-30T14:47:25;11.40;99.90
31809;DHT22;18379;48.208;-1.518;2024-01-30T14:52:26;11.50;99.90
31809;DHT22;18379;48.208;-1.518;2024-01-30T14:57:28;11.60;99.90
31809;DHT22;18379;48.208;-1.518;2024-01-30T15:02:28;11.90;99.90
31809;DHT22;18379;48.208;-1.518;2024-01-30T15:07:29;11.80;99.90
31809;DHT22;18379;48.208;-1.518;2024-01-30T15:12:30;11.60;99.90
31809;DHT22;18379;48.208;-1.518;2024-01-30T15:17:30;11.50;99.90
31809;DHT22;18379;48.208;-1.518;2024-01-30T15:22:31;11.30;99.90
31809;DHT22;18379;48.208;-1.518;2024-01-30T15:27:32;11.10;99.90
31809;DHT22;18379;48.208;-1.518;2024-01-30T15:32:32;11.20;99.90
31809;DHT22;18379;48.208;-1.518;2024-01-30T15:37:33;11.30;99.90
31809;DHT22;18379;48.208;-1.518;2024-01-30T15:42:34;11.30;99.90
31809;DHT22;18379;48.208;-1.518;2024-01-30T15:47:35;11.50;99.90
31809;DHT22;18379;48.208;-1.518;2024-01-30T15:52:37;11.40;99.90
31809;DHT22;18379;48.208;-1.518;2024-01-30T15:57:38;11.50;99.90
31809;DHT22;18379;48.208;-1.518;2024-01-30T16:02:39;11.60;99.90
31809;DHT22;18379;48.208;-1.518;2024-01-30T16:07:39;11.40;99.90
31809;DHT22;18379;48.208;-1.518;2024-01-30T16:12:40;11.60;99.90
31809;DHT22;18379;48.208;-1.518;2024-01-30T16:17:45;11.30;99.90
31809;DHT22;18379;48.208;-1.518;2024-01-30T16:22:46;11.00;99.90
31809;DHT22;18379;48.208;-1.518;2024-01-30T16:27:46;11.10;99.90
31809;DHT22;18379;48.208;-1.518;2024-01-30T16:32:47;11.20;99.90
31809;DHT22;18379;48.208;-1.518;2024-01-30T16:37:48;10.90;99.90
31809;DHT22;18379;48.208;-1.518;2024-01-30T16:42:48;11.00;99.90
31809;DHT22;18379;48.208;-1.518;2024-01-30T16:47:49;11.10;99.90
31809;DHT22;18379;48.208;-1.518;2024-01-30T16:52:50;11.20;99.90
31809;DHT22;18379;48.208;-1.518;2024-01-30T16:57:51;11.30;99.90
31809;DHT22;18379;48.208;-1.518;2024-01-30T17:02:51;11.30;99.90
31809;DHT22;18379;48.208;-1.518;2024-01-30T17:07:53;11.30;99.90
31809;DHT22;18379;48.208;-1.518;2024-01-30T17:12:54;11.30;99.90
31809;DHT22;18379;48.208;-1.518;2024-01-30T17:17:54;11.20;99.90
31809;DHT22;18379;48.208;-1.518;2024-01-30T17:22:55;11.20;99.90
31809;DHT22;18379;48.208;-1.518;2024-01-30T17:27:56;11.30;99.90
31809;DHT22;18379;48.208;-1.518;2024-01-30T17:32:58;11.30;99.90
31809;DHT22;18379;48.208;-1.518;2024-01-30T17:37:59;11.40;99.90
31809;DHT22;18379;48.208;-1.518;2024-01-30T17:43:00;11.40;99.90
31809;DHT22;18379;48.208;-1.518;2024-01-30T17:48:01;11.00;99.90
31809;DHT22;18379;48.208;-1.518;2024-01-30T17:53:01;10.80;99.90
31809;DHT22;18379;48.208;-1.518;2024-01-30T17:58:02;10.80;99.90
31809;DHT22;18379;48.208;-1.518;2024-01-30T18:03:04;10.90;99.90
31809;DHT22;18379;48.208;-1.518;2024-01-30T18:08:05;11.10;99.90
31809;DHT22;18379;48.208;-1.518;2024-01-30T18:13:07;11.10;99.90
31809;DHT22;18379;48.208;-1.518;2024-01-30T18:18:09;11.10;99.90
31809;DHT22;18379;48.208;-1.518;2024-01-30T18:23:12;11.10;99.90
31809;DHT22;18379;48.208;-1.518;2024-01-30T18:28:13;11.10;99.90
31809;DHT22;18379;48.208;-1.518;2024-01-30T18:33:14;11.00;99.90
31809;DHT22;18379;48.208;-1.518;2024-01-30T18:38:15;10.90;99.90
31809;DHT22;18379;48.208;-1.518;2024-01-30T18:43:15;10.90;99.90
31809;DHT22;18379;48.208;-1.518;2024-01-30T18:48:17;10.90;99.90
31809;DHT22;18379;48.208;-1.518;2024-01-30T18:53:18;10.90;99.90
31809;DHT22;18379;48.208;-1.518;2024-01-30T18:58:19;10.80;99.90
31809;DHT22;18379;48.208;-1.518;2024-01-30T19:03:19;10.70;99.90
31809;DHT22;18379;48.208;-1.518;2024-01-30T19:08:21;10.70;99.90
31809;DHT22;18379;48.208;-1.518;2024-01-30T19:13:22;10.50;99.90
31809;DHT22;18379;48.208;-1.518;2024-01-30T19:18:23;10.60;99.90
31809;DHT22;18379;48.208;-1.518;2024-01-30T19:23:23;10.40;99.90
31809;DHT22;18379;48.208;-1.518;2024-01-30T19:28:24;10.40;99.90
31809;DHT22;18379;48.208;-1.518;2024-01-30T19:33:25;10.30;99.90
31809;DHT22;18379;48.208;-1.518;2024-01-30T19:38:25;10.20;99.90
31809;DHT22;18379;48.208;-1.518;2024-01-30T19:43:26;10.10;99.90
31809;DHT22;18379;48.208;-1.518;2024-01-30T19:48:27;10.00;99.90
31809;DHT22;18379;48.208;-1.518;2024-01-30T19:53:28;10.00;99.90
31809;DHT22;18379;48.208;-1.518;2024-01-30T19:58:29;10.00;99.90
31809;DHT22;18379;48.208;-1.518;2024-01-30T20:03:29;9.90;99.90
31809;DHT22;18379;48.208;-1.518;2024-01-30T20:08:30;9.90;99.90
31809;DHT22;18379;48.208;-1.518;2024-01-30T20:13:33;9.80;99.90
31809;DHT22;18379;48.208;-1.518;2024-01-30T20:18:36;9.70;99.90
31809;DHT22;18379;48.208;-1.518;2024-01-30T20:23:37;9.30;99.90
31809;DHT22;18379;48.208;-1.518;2024-01-30T20:28:38;9.30;99.90
31809;DHT22;18379;48.208;-1.518;2024-01-30T20:33:39;9.30;99.90
31809;DHT22;18379;48.208;-1.518;2024-01-30T20:38:40;9.30;99.90
31809;DHT22;18379;48.208;-1.518;2024-01-30T20:43:41;9.30;99.90
31809;DHT22;18379;48.208;-1.518;2024-01-30T20:48:42;9.20;99.90
31809;DHT22;18379;48.208;-1.518;2024-01-30T20:53:44;9.00;99.90
31809;DHT22;18379;48.208;-1.518;2024-01-30T20:58:45;9.10;99.90
31809;DHT22;18379;48.208;-1.518;2024-01-30T21:03:46;8.90;99.90
31809;DHT22;18379;48.208;-1.518;2024-01-30T21:08:48;8.80;99.90
31809;DHT22;18379;48.208;-1.518;2024-01-30T21:13:48;8.80;99.90
31809;DHT22;18379;48.208;-1.518;2024-01-30T21:18:49;8.70;99.90
31809;DHT22;18379;48.208;-1.518;2024-01-30T21:23:50;8.70;99.90
31809;DHT22;18379;48.208;-1.518;2024-01-30T21:28:50;8.60;99.90
31809;DHT22;18379;48.208;-1.518;2024-01-30T21:33:51;8.60;99.90
31809;DHT22;18379;48.208;-1.518;2024-01-30T21:38:53;8.50;99.90
31809;DHT22;18379;48.208;-1.518;2024-01-30T21:43:53;8.30;99.90
31809;DHT22;18379;48.208;-1.518;2024-01-30T21:48:54;8.20;99.90
31809;DHT22;18379;48.208;-1.518;2024-01-30T21:53:54;8.10;99.90
31809;DHT22;18379;48.208;-1.518;2024-01-30T21:58:55;8.00;99.90
31809;DHT22;18379;48.208;-1.518;2024-01-30T22:03:56;8.00;99.90
31809;DHT22;18379;48.208;-1.518;2024-01-30T22:08:56;7.90;99.90
31809;DHT22;18379;48.208;-1.518;2024-01-30T22:13:57;8.00;99.90
31809;DHT22;18379;48.208;-1.518;2024-01-30T22:18:58;8.00;99.90
31809;DHT22;18379;48.208;-1.518;2024-01-30T22:23:58;8.10;99.90
31809;DHT22;18379;48.208;-1.518;2024-01-30T22:28:59;8.10;99.90
31809;DHT22;18379;48.208;-1.518;2024-01-30T22:34:00;8.00;99.90
31809;DHT22;18379;48.208;-1.518;2024-01-30T22:39:04;8.10;99.90
31809;DHT22;18379;48.208;-1.518;2024-01-30T22:44:05;8.10;99.90
31809;DHT22;18379;48.208;-1.518;2024-01-30T22:49:05;8.00;99.90
31809;DHT22;18379;48.208;-1.518;2024-01-30T22:54:06;8.00;99.90
31809;DHT22;18379;48.208;-1.518;2024-01-30T22:59:07;7.90;99.90
31809;DHT22;18379;48.208;-1.518;2024-01-30T23:04:07;7.80;99.90
31809;DHT22;18379;48.208;-1.518;2024-01-30T23:09:08;7.80;99.90
31809;DHT22;18379;48.208;-1.518;2024-01-30T23:14:09;7.90;99.90
31809;DHT22;18379;48.208;-1.518;2024-01-30T23:19:09;7.80;99.90
31809;DHT22;18379;48.208;-1.518;2024-01-30T23:24:11;7.80;99.90
31809;DHT22;18379;48.208;-1.518;2024-01-30T23:29:12;7.80;99.90
31809;DHT22;18379;48.208;-1.518;2024-01-30T23:34:12;7.70;99.90
31809;DHT22;18379;48.208;-1.518;2024-01-30T23:39:13;7.70;99.90
31809;DHT22;18379;48.208;-1.518;2024-01-30T23:44:14;7.70;99.90
31809;DHT22;18379;48.208;-1.518;2024-01-30T23:49:15;7.70;99.90
31809;DHT22;18379;48.208;-1.518;2024-01-30T23:54:16;7.60;99.90
31809;DHT22;18379;48.208;-1.518;2024-01-30T23:59:16;7.60;99.90
